Abbottstown, Pennsylvania
Current Conditions -  °F | °C
As of 6:53 AM on Thursday 27 Nov 2014 (Local Time) from KTHV Reporting Station
Few Clouds Few Clouds  
Wind Chill: 30°   Ceiling: Unl
Heat Index: 30°   Visibility: 10mi
Dew Point: 27°   Wind: 3mph
Humidity: 88%   Direction: 280°W
Pressure: 30.01"   Gusts: NA
Location:  39.89°N, 76.98°W
Report Text: KTHV 271153Z AUTO 28003KT 10SM FEW070 M01/M03 A3001 RMK AO2 SLP171 70051 T10111028 10011 21011 53012
Loading
Personal Weather Stations






























Interactive Weather Map New forecast layout! Learn more

10-Day Weather Forecast

Advertisements
Track Severe Weather on mobile